マニラ/ニノイ・アキノ の空港の天気 - METARとTAF

ニノイ・アキノ国際空港 ( RPLL / MNL ) - フィリピン マニラ
飛行場実況気象(Metar)
観測時間04/22 00:00 PHT (04/21 16:00 UTC)
風向・風速東南東 4m/s
視程10km以上
天気現象
少しの雲 雲底高度 760m
気温29℃
湿度74%
気圧1009hPa
METARRPLL 211600Z 12008KT 090V160 9999 FEW025 29/24 Q1009 NOSIG RMK A2980
過去の天気等 Google飛行場航空写真 Wunderground天気予報

過去48時間のMETAR

飛行場予報(TAF)
発表時間: 4/21 19:00 PHT (4/21 11:00 UTC)
予報対象時間: 21日20時 PHT ~ 23日2時 PHT
風向・風速東南東 3m/s
視程10km以上
少しの雲 雲底高度 760m
21日20時 PHT ~ 22日2時 PHT に一時的に
風向・風速東南東 6m/s
少しの積乱雲 雲底高度 700m
全天の4割程度の雲 雲底高度 760m
22日2時 PHT ~ 22日8時 PHT に一時的に
風向・風速東 3m/s
22日10時 PHT ~ 22日16時 PHT に一時的に
風向・風速東南東 6m/s
TAF RPLL 211100Z 2112/2218 11006KT 9999 FEW025 TX36/2206Z TN27/2121Z
TEMPO 2112/2118 12012KT FEW023CB SCT025
TEMPO 2118/2124 08006KT
TEMPO 2202/2208 12012KT